createdAt,value
2018-09-20T00:00:52.863Z,63.73
2018-09-20T00:01:52.873Z,63.62
2018-09-20T00:02:52.844Z,63.56
2018-09-20T00:03:52.827Z,63.53
2018-09-20T00:04:52.819Z,63.62
2018-09-20T00:05:52.807Z,63.65
2018-09-20T00:06:52.792Z,63.76
2018-09-20T00:07:52.796Z,63.76
2018-09-20T00:08:52.773Z,63.56
2018-09-20T00:09:52.762Z,63.62
2018-09-20T00:10:52.749Z,63.96
2018-09-20T00:11:52.736Z,63.96
2018-09-20T00:12:52.746Z,63.65
2018-09-20T00:13:52.712Z,63.76
2018-09-20T00:14:52.705Z,64.16
2018-09-20T00:15:52.695Z,64.06
2018-09-20T00:16:52.679Z,64.26
2018-09-20T00:17:52.670Z,64.06
2018-09-20T00:18:52.671Z,64.06
2018-09-20T00:19:52.650Z,64.36
2018-09-20T00:20:52.637Z,64.06
2018-09-20T00:21:52.625Z,63.96
2018-09-20T00:22:52.627Z,64.26
2018-09-20T00:23:52.612Z,64.39
2018-09-20T00:24:52.591Z,64.09
2018-09-20T00:25:52.579Z,64.66
2018-09-20T00:26:52.566Z,64.16
2018-09-20T00:27:52.560Z,64.29
2018-09-20T00:28:52.566Z,64.79
2018-09-20T00:29:52.532Z,64.89
2018-09-20T00:30:52.523Z,64.59
2018-09-20T00:31:52.511Z,64.99
2018-09-20T00:32:52.500Z,65.19
2018-09-20T00:33:52.486Z,65.50
2018-09-20T00:34:52.491Z,65.12
2018-09-20T00:35:52.465Z,65.12
2018-09-20T00:36:52.453Z,65.73
2018-09-20T00:37:52.441Z,65.12
2018-09-20T00:38:52.433Z,65.73
2018-09-20T00:39:52.440Z,65.09
2018-09-20T00:40:52.411Z,65.09
2018-09-20T00:41:52.398Z,64.99
2018-09-20T00:42:52.387Z,65.39
2018-09-20T00:43:52.375Z,65.09
2018-09-20T00:44:52.385Z,65.22
2018-09-20T00:45:52.353Z,65.22
2018-09-20T00:46:52.345Z,65.73
2018-09-20T00:47:52.348Z,65.42
2018-09-20T00:48:52.320Z,65.53
2018-09-20T00:49:52.330Z,65.53
2018-09-20T00:50:52.302Z,65.53
2018-09-20T00:51:52.291Z,65.62
2018-09-20T00:52:52.281Z,65.53
2018-09-20T00:53:52.271Z,66.03
2018-09-20T00:54:52.260Z,65.62
2018-09-20T00:55:52.264Z,65.62
2018-09-20T00:56:52.236Z,66.53
2018-09-20T00:57:52.226Z,65.73
2018-09-20T00:58:52.216Z,66.43
2018-09-20T00:59:52.205Z,66.33
2018-09-20T01:00:52.194Z,65.93
2018-09-20T01:01:52.199Z,66.13
2018-09-20T01:02:52.213Z,66.36
2018-09-20T01:03:52.160Z,66.77
2018-09-20T01:04:52.150Z,66.56
2018-09-20T01:05:52.144Z,66.87
2018-09-20T01:06:52.132Z,67.07
2018-09-20T01:07:52.120Z,67.30
2018-09-20T01:08:52.124Z,67.40
2018-09-20T01:09:52.099Z,67.30
2018-09-20T01:10:52.088Z,67.60
2018-09-20T01:11:52.083Z,67.10
2018-09-20T01:12:52.081Z,67.20
2018-09-20T01:13:52.052Z,68.31
2018-09-20T01:14:52.045Z,68.44
2018-09-20T01:15:52.031Z,68.31
2018-09-20T01:16:52.027Z,68.34
2018-09-20T01:17:52.048Z,67.74
2018-09-20T01:18:51.999Z,68.01
2018-09-20T01:19:51.990Z,68.24
2018-09-20T01:20:51.976Z,68.44
2018-09-20T01:21:51.965Z,68.04
2018-09-20T01:22:51.957Z,68.34
2018-09-20T01:23:51.960Z,68.85
2018-09-20T01:24:51.932Z,68.74
2018-09-20T01:25:51.926Z,68.54
2018-09-20T01:26:51.915Z,68.48
2018-09-20T01:27:51.917Z,68.98
2018-09-20T01:28:51.905Z,68.95
2018-09-20T01:29:51.882Z,68.88
2018-09-20T01:30:51.869Z,68.77
2018-09-20T01:31:51.858Z,68.77
2018-09-20T01:32:51.846Z,69.89
2018-09-20T01:33:51.851Z,69.89
2018-09-20T01:34:51.839Z,69.89
2018-09-20T01:35:51.813Z,69.89
2018-09-20T01:36:51.803Z,70.09
2018-09-20T01:37:51.792Z,70.12
2018-09-20T01:38:51.786Z,69.92
2018-09-20T01:39:51.787Z,69.79
2018-09-20T01:40:51.760Z,69.68
2018-09-20T01:41:51.763Z,69.72
2018-09-20T01:42:51.736Z,69.82
2018-09-20T01:43:51.729Z,69.82
2018-09-20T01:44:51.733Z,69.82
2018-09-20T01:45:51.705Z,69.92
2018-09-20T01:46:51.693Z,69.72
2018-09-20T01:47:51.682Z,69.72
2018-09-20T01:48:51.670Z,69.72
2018-09-20T01:49:51.674Z,69.72
2018-09-20T01:50:51.663Z,70.02
2018-09-20T01:51:51.656Z,69.72
2018-09-20T01:52:51.629Z,70.22
2018-09-20T01:53:51.615Z,70.02
2018-09-20T01:54:51.606Z,69.82
2018-09-20T01:55:51.608Z,69.92
2018-09-20T01:56:51.586Z,69.92
2018-09-20T01:57:51.571Z,69.72
2018-09-20T01:58:51.559Z,70.02
2018-09-20T01:59:51.548Z,70.42
2018-09-20T02:00:51.555Z,70.12
2018-09-20T02:01:51.526Z,70.73
2018-09-20T02:02:51.517Z,70.36
2018-09-20T02:03:51.505Z,70.76
2018-09-20T02:04:51.495Z,70.46
2018-09-20T02:05:51.503Z,70.66
2018-09-20T02:06:51.472Z,70.26
2018-09-20T02:07:51.459Z,70.53
2018-09-20T02:08:51.449Z,70.86
2018-09-20T02:09:51.441Z,70.66
2018-09-20T02:10:51.430Z,70.46
2018-09-20T02:11:51.435Z,70.96
2018-09-20T02:12:51.409Z,70.76
2018-09-20T02:13:51.393Z,71.06
2018-09-20T02:14:51.386Z,71.10
2018-09-20T02:15:51.370Z,71.26
2018-09-20T02:16:51.361Z,71.30
2018-09-20T02:17:51.362Z,71.80
2018-09-20T02:18:51.357Z,71.60
2018-09-20T02:19:51.328Z,71.91
2018-09-20T02:20:51.315Z,71.20
2018-09-20T02:21:51.304Z,71.20
2018-09-20T02:22:51.296Z,71.20
2018-09-20T02:23:51.309Z,71.91
2018-09-20T02:24:51.270Z,72.00
2018-09-20T02:25:51.262Z,71.70
2018-09-20T02:26:51.252Z,71.91
2018-09-20T02:27:51.240Z,71.91
2018-09-20T02:28:51.229Z,72.41
2018-09-20T02:29:51.232Z,72.00
2018-09-20T02:30:51.204Z,72.31
2018-09-20T02:31:51.193Z,72.31
2018-09-20T02:32:51.203Z,72.85
2018-09-20T02:33:51.170Z,72.71
2018-09-20T02:34:51.163Z,72.55
2018-09-20T02:35:51.149Z,72.55
2018-09-20T02:36:51.137Z,72.75
2018-09-20T02:37:51.129Z,72.75
2018-09-20T02:38:51.129Z,72.44
2018-09-20T02:39:51.107Z,72.44
2018-09-20T02:40:51.094Z,72.85
2018-09-20T02:41:51.086Z,72.55
2018-09-20T02:42:51.074Z,72.75
2018-09-20T02:43:51.082Z,72.85
2018-09-20T02:44:51.051Z,72.85
2018-09-20T02:45:51.041Z,72.95
2018-09-20T02:46:51.027Z,72.64
2018-09-20T02:47:51.016Z,73.05
2018-09-20T02:48:51.004Z,72.75
2018-09-20T02:49:51.018Z,73.46
2018-09-20T02:50:50.984Z,72.75
2018-09-20T02:51:50.973Z,73.05
2018-09-20T02:52:50.960Z,73.05
2018-09-20T02:53:50.952Z,72.75
2018-09-20T02:54:50.964Z,73.15
2018-09-20T02:55:50.960Z,73.15
2018-09-20T02:56:50.915Z,73.08
2018-09-20T02:57:50.904Z,73.49
2018-09-20T02:58:50.924Z,73.69
2018-09-20T02:59:50.886Z,73.69
2018-09-20T03:00:50.875Z,73.59
2018-09-20T03:01:50.874Z,73.69
2018-09-20T03:02:50.861Z,73.99
2018-09-20T03:03:50.837Z,73.79
2018-09-20T03:04:50.828Z,73.90
2018-09-20T03:05:50.815Z,73.90
2018-09-20T03:06:50.821Z,73.99
2018-09-20T03:07:50.792Z,74.10
2018-09-20T03:08:50.782Z,74.30
2018-09-20T03:09:50.774Z,74.03
2018-09-20T03:10:50.761Z,73.90
2018-09-20T03:11:50.788Z,74.30
2018-09-20T03:12:50.754Z,74.13
2018-09-20T03:13:50.728Z,74.30
2018-09-20T03:14:50.717Z,74.54
2018-09-20T03:15:50.706Z,74.33
2018-09-20T03:16:50.694Z,74.23
2018-09-20T03:17:50.709Z,74.13
2018-09-20T03:18:50.671Z,74.23
2018-09-20T03:19:50.661Z,74.74
2018-09-20T03:20:50.650Z,74.74
2018-09-20T03:21:50.640Z,74.13
2018-09-20T03:22:50.629Z,74.54
2018-09-20T03:23:50.634Z,74.43
2018-09-20T03:24:50.601Z,74.63
2018-09-20T03:25:50.594Z,74.63
2018-09-20T03:26:50.591Z,74.74
2018-09-20T03:27:50.572Z,74.74
2018-09-20T03:28:50.563Z,74.63
2018-09-20T03:29:50.577Z,74.43
2018-09-20T03:30:50.636Z,74.63
2018-09-20T03:31:50.529Z,74.43
2018-09-20T03:32:50.517Z,74.63
2018-09-20T03:33:50.505Z,74.94
2018-09-20T03:34:50.497Z,74.63
2018-09-20T03:35:50.500Z,74.43
2018-09-20T03:36:50.469Z,74.47
2018-09-20T03:37:50.461Z,74.74
2018-09-20T03:38:50.448Z,74.77
2018-09-20T03:39:50.464Z,74.67
2018-09-20T03:40:50.440Z,74.87
2018-09-20T03:41:50.414Z,74.98
2018-09-20T03:42:50.408Z,75.07
2018-09-20T03:43:50.419Z,75.07
2018-09-20T03:44:50.386Z,75.07
2018-09-20T03:45:50.395Z,74.87
2018-09-20T03:46:50.364Z,75.18
2018-09-20T03:47:50.352Z,75.38
2018-09-20T03:48:50.337Z,75.18
2018-09-20T03:49:50.335Z,75.28
2018-09-20T03:50:50.316Z,75.28
2018-09-20T03:51:50.323Z,75.28
2018-09-20T03:52:50.297Z,75.58
2018-09-20T03:53:50.285Z,75.28
2018-09-20T03:54:50.274Z,75.48
2018-09-20T03:55:50.260Z,75.58
2018-09-20T03:56:50.253Z,75.48
2018-09-20T03:57:50.255Z,75.58
2018-09-20T03:58:50.230Z,75.79
2018-09-20T03:59:50.219Z,75.68
2018-09-20T04:00:50.210Z,75.79
2018-09-20T04:01:50.197Z,75.68
2018-09-20T04:02:50.201Z,75.58
2018-09-20T04:03:50.174Z,76.29
2018-09-20T04:04:50.160Z,75.68
2018-09-20T04:05:50.152Z,75.68
2018-09-20T04:06:50.155Z,75.58
2018-09-20T04:07:50.129Z,76.09
2018-09-20T04:08:50.119Z,75.79
2018-09-20T04:09:50.176Z,75.58
2018-09-20T04:10:50.098Z,75.58
2018-09-20T04:11:50.101Z,75.58
2018-09-20T04:12:50.076Z,75.68
2018-09-20T04:13:50.065Z,75.38
2018-09-20T04:14:50.067Z,75.38
2018-09-20T04:15:50.040Z,75.68
2018-09-20T04:16:50.027Z,75.58
2018-09-20T04:17:50.018Z,75.89
2018-09-20T04:18:50.018Z,75.68
2018-09-20T04:19:49.996Z,75.68
2018-09-20T04:20:49.987Z,75.58
2018-09-20T04:21:49.974Z,75.72
2018-09-20T04:22:49.964Z,75.58
2018-09-20T04:23:49.961Z,76.03
2018-09-20T04:24:49.979Z,75.99
2018-09-20T04:25:49.929Z,76.23
2018-09-20T04:26:49.916Z,76.09
2018-09-20T04:27:49.909Z,76.32
2018-09-20T04:28:49.899Z,76.09
2018-09-20T04:29:49.885Z,76.03
2018-09-20T04:30:49.883Z,76.23
2018-09-20T04:31:49.940Z,75.72
2018-09-20T04:32:49.851Z,75.82
2018-09-20T04:33:49.897Z,76.12
2018-09-20T04:34:49.837Z,76.63
2018-09-20T04:35:49.858Z,76.12
2018-09-20T04:36:49.814Z,76.83
2018-09-20T04:37:49.798Z,76.53
2018-09-20T04:38:49.786Z,76.12
2018-09-20T04:39:49.776Z,76.23
2018-09-20T04:40:49.764Z,76.43
2018-09-20T04:41:49.762Z,76.43
2018-09-20T04:42:49.740Z,76.93
2018-09-20T04:43:49.736Z,76.83
2018-09-20T04:44:49.719Z,76.83
2018-09-20T04:45:49.725Z,76.23
2018-09-20T04:46:49.696Z,76.63
2018-09-20T04:47:49.684Z,76.73
2018-09-20T04:48:49.673Z,76.73
2018-09-20T04:49:49.662Z,76.53
2018-09-20T04:50:49.655Z,77.03
2018-09-20T04:51:49.653Z,76.43
2018-09-20T04:52:49.682Z,77.03
2018-09-20T04:53:49.621Z,76.83
2018-09-20T04:54:49.609Z,76.53
2018-09-20T04:55:49.595Z,76.83
2018-09-20T04:56:49.603Z,76.83
2018-09-20T04:57:49.574Z,77.34
2018-09-20T04:58:49.568Z,76.73
2018-09-20T04:59:49.605Z,77.03
2018-09-20T05:00:49.545Z,76.53
2018-09-20T05:01:49.651Z,77.44
2018-09-20T05:02:49.519Z,77.24
2018-09-20T05:03:49.512Z,77.03
2018-09-20T05:04:49.500Z,77.34
2018-09-20T05:05:49.489Z,77.24
2018-09-20T05:06:49.481Z,76.93
2018-09-20T05:07:49.505Z,76.83
2018-09-20T05:08:49.453Z,76.93
2018-09-20T05:09:49.445Z,76.93
2018-09-20T05:10:49.431Z,76.73
2018-09-20T05:11:49.420Z,76.83
2018-09-20T05:12:49.411Z,76.83
2018-09-20T05:13:49.421Z,76.83
2018-09-20T05:14:49.397Z,76.83
2018-09-20T05:15:49.379Z,77.34
2018-09-20T05:16:49.370Z,76.73
2018-09-20T05:17:49.355Z,77.07
2018-09-20T05:18:49.344Z,77.03
2018-09-20T05:19:49.342Z,76.73
2018-09-20T05:20:49.327Z,76.83
2018-09-20T05:21:49.313Z,77.24
2018-09-20T05:22:49.302Z,77.24
2018-09-20T05:23:49.306Z,77.37
2018-09-20T05:24:49.309Z,76.73
2018-09-20T05:25:49.275Z,77.44
2018-09-20T05:26:49.258Z,76.73
2018-09-20T05:27:49.244Z,77.03
2018-09-20T05:28:49.235Z,76.63
2018-09-20T05:29:49.261Z,77.24
2018-09-20T05:30:49.210Z,76.73
2018-09-20T05:31:49.203Z,77.34
2018-09-20T05:32:49.188Z,77.34
2018-09-20T05:33:49.430Z,76.73
2018-09-20T05:34:49.171Z,76.73
2018-09-20T05:35:49.199Z,77.24
2018-09-20T05:36:49.149Z,76.93
2018-09-20T05:37:49.261Z,77.34
2018-09-20T05:38:49.125Z,76.93
2018-09-20T05:39:49.112Z,76.93
2018-09-20T05:40:49.233Z,76.83
2018-09-20T05:41:49.142Z,76.87
2018-09-20T05:42:49.085Z,77.03
2018-09-20T05:43:49.070Z,77.75
2018-09-20T05:44:49.055Z,77.14
2018-09-20T05:45:49.043Z,76.73
2018-09-20T05:46:49.035Z,76.59
2018-09-20T05:47:49.064Z,77.03
2018-09-20T05:48:49.019Z,76.93
2018-09-20T05:49:49.001Z,76.90
2018-09-20T05:50:49.048Z,77.20
2018-09-20T05:51:48.977Z,77.44
2018-09-20T05:52:48.971Z,77.00
2018-09-20T05:53:48.968Z,77.00
2018-09-20T05:54:48.961Z,76.90
2018-09-20T05:55:48.934Z,76.90
2018-09-20T05:56:48.922Z,76.70
2018-09-20T05:57:48.910Z,76.90
2018-09-20T05:58:48.900Z,76.79
2018-09-20T05:59:48.906Z,76.76
2018-09-20T06:00:48.893Z,76.66
2018-09-20T06:01:48.866Z,76.09
2018-09-20T06:02:48.869Z,76.76
2018-09-20T06:03:48.846Z,76.35
2018-09-20T06:04:48.850Z,76.66
2018-09-20T06:05:48.851Z,75.61
2018-09-20T06:06:48.812Z,75.41
2018-09-20T06:07:48.799Z,75.51
2018-09-20T06:08:48.800Z,75.61
2018-09-20T06:09:48.780Z,75.41
2018-09-20T06:10:48.770Z,75.75
2018-09-20T06:11:48.758Z,75.75
2018-09-20T06:12:48.765Z,75.75
2018-09-20T06:13:48.737Z,75.65
2018-09-20T06:14:48.724Z,75.92
2018-09-20T06:15:48.712Z,75.85
2018-09-20T06:16:48.701Z,75.71
2018-09-20T06:17:48.694Z,75.75
2018-09-20T06:18:48.716Z,75.31
2018-09-20T06:19:48.674Z,75.41
2018-09-20T06:20:48.662Z,75.55
2018-09-20T06:21:48.709Z,75.41
2018-09-20T06:22:48.638Z,75.92
2018-09-20T06:23:48.624Z,75.61
2018-09-20T06:24:48.630Z,75.71
2018-09-20T06:25:48.604Z,75.51
2018-09-20T06:26:48.593Z,75.31
2018-09-20T06:27:48.625Z,75.10
2018-09-20T06:28:48.569Z,75.01
2018-09-20T06:29:48.561Z,75.27
2018-09-20T06:30:48.559Z,74.87
2018-09-20T06:31:48.539Z,74.26
2018-09-20T06:32:48.549Z,74.33
2018-09-20T06:33:48.516Z,74.22
2018-09-20T06:34:48.524Z,73.86
2018-09-20T06:35:48.495Z,74.22
2018-09-20T06:36:48.552Z,74.22
2018-09-20T06:37:48.477Z,74.33
2018-09-20T06:38:48.482Z,74.02
2018-09-20T06:39:48.453Z,73.93
2018-09-20T06:40:48.445Z,74.06
2018-09-20T06:41:48.456Z,74.33
2018-09-20T06:42:48.419Z,74.13
2018-09-20T06:43:48.409Z,74.37
2018-09-20T06:44:48.400Z,73.96
2018-09-20T06:45:48.388Z,74.33
2018-09-20T06:46:48.380Z,74.02
2018-09-20T06:47:48.387Z,74.37
2018-09-20T06:48:48.358Z,73.82
2018-09-20T06:49:48.347Z,73.93
2018-09-20T06:50:48.335Z,73.62
2018-09-20T06:51:48.323Z,73.11
2018-09-20T06:52:48.328Z,73.52
2018-09-20T06:53:48.316Z,73.22
2018-09-20T06:54:48.292Z,73.69
2018-09-20T06:55:48.283Z,72.98
2018-09-20T06:56:48.273Z,73.28
2018-09-20T06:57:48.261Z,73.15
2018-09-20T06:58:48.267Z,72.14
2018-09-20T06:59:48.240Z,72.44
2018-09-20T07:00:48.229Z,72.44
2018-09-20T07:01:48.221Z,72.34
2018-09-20T07:02:48.226Z,71.94
2018-09-20T07:03:48.213Z,72.20
2018-09-20T07:04:48.184Z,72.20
2018-09-20T07:05:48.172Z,71.57
2018-09-20T07:06:48.181Z,71.17
2018-09-20T07:07:48.150Z,71.23
2018-09-20T07:08:48.141Z,70.42
2018-09-20T07:09:48.130Z,69.92
2018-09-20T07:10:48.135Z,69.69
2018-09-20T07:11:48.125Z,68.95
2018-09-20T07:12:48.095Z,68.75
2018-09-20T07:13:48.179Z,68.95
2018-09-20T07:14:48.074Z,68.35
2018-09-20T07:15:48.062Z,68.51
2018-09-20T07:16:48.051Z,68.51
2018-09-20T07:17:48.063Z,68.38
2018-09-20T07:18:48.030Z,67.58
2018-09-20T07:19:48.020Z,67.04
2018-09-20T07:20:48.008Z,67.04
2018-09-20T07:21:47.997Z,66.24
2018-09-20T07:22:47.985Z,67.04
2018-09-20T07:23:47.990Z,67.14
2018-09-20T07:24:47.965Z,66.51
2018-09-20T07:25:48.063Z,66.61
2018-09-20T07:26:47.939Z,66.61
2018-09-20T07:27:47.931Z,66.31
2018-09-20T07:28:47.933Z,65.07
2018-09-20T07:29:47.907Z,65.54
2018-09-20T07:30:47.897Z,65.54
2018-09-20T07:31:47.912Z,64.81
2018-09-20T07:32:47.951Z,63.90
2018-09-20T07:33:47.870Z,64.21
2018-09-20T07:34:47.855Z,64.18
2018-09-20T07:35:47.845Z,63.87
2018-09-20T07:36:47.833Z,62.84
2018-09-20T07:37:47.837Z,63.04
2018-09-20T07:38:47.812Z,62.44
2018-09-20T07:39:47.798Z,62.41
2018-09-20T07:40:47.801Z,62.61
2018-09-20T07:41:47.776Z,60.88
2018-09-20T07:42:47.765Z,61.68
2018-09-20T07:43:47.770Z,61.18
2018-09-20T07:44:47.746Z,61.15
2018-09-20T07:45:47.760Z,60.95
2018-09-20T07:46:47.720Z,61.02
2018-09-20T07:47:47.714Z,59.39
2018-09-20T07:48:47.700Z,59.19
2018-09-20T07:49:47.690Z,59.79
2018-09-20T07:50:47.681Z,59.30
2018-09-20T07:51:47.687Z,58.47
2018-09-20T07:52:47.672Z,58.67
2018-09-20T07:53:47.703Z,57.54
2018-09-20T07:54:47.664Z,57.54
2018-09-20T07:55:47.628Z,58.14
2018-09-20T07:56:47.692Z,58.04
2018-09-20T07:57:47.601Z,57.34
2018-09-20T07:58:47.602Z,57.21
2018-09-20T07:59:47.583Z,57.24
2018-09-20T08:00:47.572Z,57.14
2018-09-20T08:01:47.602Z,57.93
2018-09-20T08:02:47.558Z,57.11
2018-09-20T08:03:47.572Z,57.81
2018-09-20T08:04:47.525Z,56.38
2018-09-20T08:05:47.529Z,56.59
2018-09-20T08:06:47.506Z,55.99
2018-09-20T08:07:47.506Z,56.91
2018-09-20T08:08:47.493Z,56.79
2018-09-20T08:09:47.475Z,56.79
2018-09-20T08:10:47.462Z,56.18
2018-09-20T08:11:47.453Z,55.76
2018-09-20T08:12:47.499Z,55.79
2018-09-20T08:13:47.428Z,55.19
2018-09-20T08:14:47.419Z,55.96
2018-09-20T08:15:47.410Z,55.58
2018-09-20T08:16:47.400Z,56.38
2018-09-20T08:17:47.399Z,55.69
2018-09-20T08:18:47.376Z,56.06
2018-09-20T08:19:47.368Z,55.33
2018-09-20T08:20:47.354Z,55.13
2018-09-20T08:21:47.344Z,54.83
2018-09-20T08:22:47.348Z,54.51
2018-09-20T08:23:47.325Z,54.53
2018-09-20T08:24:47.315Z,54.44
2018-09-20T08:25:47.300Z,55.11
2018-09-20T08:26:47.293Z,54.41
2018-09-20T08:27:47.343Z,54.31
2018-09-20T08:28:47.284Z,54.41
2018-09-20T08:29:47.259Z,53.99
2018-09-20T08:30:47.248Z,54.19
2018-09-20T08:31:47.251Z,54.38
2018-09-20T08:32:47.226Z,53.78
2018-09-20T08:33:47.231Z,54.28
2018-09-20T08:34:47.222Z,54.28
2018-09-20T08:35:47.195Z,54.66
2018-09-20T08:36:47.186Z,52.86
2018-09-20T08:37:47.284Z,53.24
2018-09-20T08:38:47.206Z,52.24
2018-09-20T08:39:47.154Z,53.11
2018-09-20T08:40:47.150Z,52.62
2018-09-20T08:41:47.131Z,52.39
2018-09-20T08:42:47.118Z,51.70
2018-09-20T08:43:47.110Z,52.22
2018-09-20T08:44:47.117Z,52.32
2018-09-20T08:45:47.087Z,52.51
2018-09-20T08:46:47.079Z,52.22
2018-09-20T08:47:47.065Z,52.51
2018-09-20T08:48:47.057Z,52.19
2018-09-20T08:49:47.060Z,52.19
2018-09-20T08:50:47.034Z,52.19
2018-09-20T08:51:47.023Z,52.17
2018-09-20T08:52:47.032Z,52.29
2018-09-20T08:53:47.001Z,52.17
2018-09-20T08:54:46.989Z,51.77
2018-09-20T08:55:46.982Z,51.77
2018-09-20T08:56:46.998Z,51.10
2018-09-20T08:57:46.962Z,52.14
2018-09-20T08:58:46.958Z,52.64
2018-09-20T08:59:46.950Z,52.34
2018-09-20T09:00:46.927Z,52.54
2018-09-20T09:01:46.918Z,52.44
2018-09-20T09:02:46.907Z,52.12
2018-09-20T09:03:46.902Z,52.22
2018-09-20T09:04:46.906Z,52.02
2018-09-20T09:05:46.876Z,52.12
2018-09-20T09:06:46.865Z,52.32
2018-09-20T09:07:46.858Z,51.10
2018-09-20T09:08:46.847Z,52.32
2018-09-20T09:09:46.845Z,51.40
2018-09-20T09:10:46.838Z,51.72
2018-09-20T09:11:46.838Z,51.82
2018-09-20T09:12:46.799Z,52.42
2018-09-20T09:13:46.788Z,52.07
2018-09-20T09:14:46.792Z,50.38
2018-09-20T09:15:46.780Z,50.80
2018-09-20T09:16:46.759Z,50.80
2018-09-20T09:17:46.762Z,50.98
2018-09-20T09:18:46.735Z,51.25
2018-09-20T09:19:46.731Z,50.75
2018-09-20T09:20:46.716Z,50.98
2018-09-20T09:21:46.705Z,50.16
2018-09-20T09:22:46.712Z,50.26
2018-09-20T09:23:46.685Z,50.26
2018-09-20T09:24:46.670Z,50.83
2018-09-20T09:25:46.661Z,50.51
2018-09-20T09:26:46.655Z,48.92
2018-09-20T09:27:46.640Z,48.82
2018-09-20T09:28:46.644Z,49.29
2018-09-20T09:29:46.621Z,48.90
2018-09-20T09:30:46.651Z,48.90
2018-09-20T09:31:46.597Z,48.57
2018-09-20T09:32:46.585Z,48.18
2018-09-20T09:33:46.576Z,47.68
2018-09-20T09:34:46.565Z,48.27
2018-09-20T09:35:46.557Z,48.08
2018-09-20T09:36:46.564Z,48.47
2018-09-20T09:37:46.536Z,47.78
2018-09-20T09:38:46.527Z,47.66
2018-09-20T09:39:46.516Z,47.56
2018-09-20T09:40:46.552Z,47.88
2018-09-20T09:41:46.512Z,47.49
2018-09-20T09:42:46.482Z,46.98
2018-09-20T09:43:46.490Z,46.69
2018-09-20T09:44:46.463Z,46.79
2018-09-20T09:45:46.453Z,47.19
2018-09-20T09:46:46.454Z,47.90
2018-09-20T09:47:46.473Z,47.21
2018-09-20T09:48:46.419Z,47.49
2018-09-20T09:49:46.409Z,47.78
2018-09-20T09:50:46.400Z,46.86
2018-09-20T09:51:46.388Z,47.36
2018-09-20T09:52:46.375Z,47.19
2018-09-20T09:53:46.382Z,47.71
2018-09-20T09:54:46.391Z,48.00
2018-09-20T09:55:46.349Z,47.80
2018-09-20T09:56:46.341Z,47.78
2018-09-20T09:57:46.344Z,47.09
2018-09-20T09:58:46.315Z,46.57
2018-09-20T09:59:46.363Z,46.25
2018-09-20T10:00:46.294Z,46.25
2018-09-20T10:01:46.287Z,46.74
2018-09-20T10:02:46.273Z,47.04
2018-09-20T10:03:46.275Z,47.04
2018-09-20T10:04:46.275Z,47.46
2018-09-20T10:05:46.239Z,47.31
2018-09-20T10:06:46.250Z,48.82
2018-09-20T10:07:46.218Z,48.74
2018-09-20T10:08:46.208Z,49.07
2018-09-20T10:09:46.200Z,50.28
2018-09-20T10:10:46.207Z,50.50
2018-09-20T10:11:46.178Z,51.30
2018-09-20T10:12:46.167Z,51.20
2018-09-20T10:13:46.215Z,50.58
2018-09-20T10:14:46.160Z,50.58
2018-09-20T10:15:46.135Z,50.35
2018-09-20T10:16:46.135Z,49.51
2018-09-20T10:17:46.111Z,48.90
2018-09-20T10:18:46.115Z,48.50
2018-09-20T10:19:46.151Z,48.40
2018-09-20T10:20:46.080Z,48.40
2018-09-20T10:21:46.069Z,48.80
2018-09-20T10:22:46.064Z,47.88
2018-09-20T10:23:46.083Z,47.49
2018-09-20T10:24:46.059Z,48.40
2018-09-20T10:25:46.029Z,48.27
2018-09-20T10:26:46.032Z,48.27
2018-09-20T10:27:46.006Z,48.38
2018-09-20T10:28:45.998Z,47.36
2018-09-20T10:29:45.986Z,47.66
2018-09-20T10:30:45.976Z,48.45
2018-09-20T10:31:45.982Z,46.94
2018-09-20T10:32:45.954Z,46.77
2018-09-20T10:33:45.965Z,47.49
2018-09-20T10:34:45.931Z,48.27
2018-09-20T10:35:45.927Z,47.68
2018-09-20T10:36:45.914Z,48.18
2018-09-20T10:37:45.915Z,47.98
2018-09-20T10:38:45.888Z,47.09
2018-09-20T10:39:45.883Z,46.47
2018-09-20T10:40:45.872Z,46.35
2018-09-20T10:41:45.862Z,45.45
2018-09-20T10:42:45.871Z,44.46
2018-09-20T10:43:45.840Z,45.48
2018-09-20T10:44:45.828Z,45.87
2018-09-20T10:45:45.848Z,46.67
2018-09-20T10:46:45.809Z,45.45
2018-09-20T10:47:45.798Z,45.65
2018-09-20T10:48:45.797Z,45.85
2018-09-20T10:49:45.777Z,46.37
2018-09-20T10:50:45.764Z,47.78
2018-09-20T10:51:45.756Z,48.00
2018-09-20T10:52:45.745Z,47.92
2018-09-20T10:53:45.744Z,48.05
2018-09-20T10:54:45.721Z,48.44
2018-09-20T10:55:45.713Z,48.77
2018-09-20T10:56:45.715Z,48.37
2018-09-20T10:57:45.692Z,47.38
2018-09-20T10:58:45.684Z,47.65
2018-09-20T10:59:45.667Z,47.05
2018-09-20T11:00:45.677Z,47.23
2018-09-20T11:01:45.647Z,47.13
2018-09-20T11:02:45.649Z,47.03
2018-09-20T11:03:45.628Z,47.21
2018-09-20T11:04:45.655Z,47.11
2018-09-20T11:05:45.607Z,46.81
2018-09-20T11:06:45.595Z,46.83
2018-09-20T11:07:45.583Z,47.01
2018-09-20T11:08:45.574Z,45.79
2018-09-20T11:09:45.565Z,46.69
2018-09-20T11:10:45.597Z,46.42
2018-09-20T11:11:45.543Z,46.39
2018-09-20T11:12:45.552Z,46.49
2018-09-20T11:13:45.521Z,46.67
2018-09-20T11:14:45.508Z,45.95
2018-09-20T11:15:45.498Z,45.95
2018-09-20T11:16:45.517Z,45.85
2018-09-20T11:17:45.476Z,45.56
2018-09-20T11:18:45.469Z,44.86
2018-09-20T11:19:45.457Z,45.18
2018-09-20T11:20:45.449Z,45.16
2018-09-20T11:21:45.441Z,43.97
2018-09-20T11:22:45.438Z,44.24
2018-09-20T11:23:45.414Z,44.24
2018-09-20T11:24:45.408Z,44.35
2018-09-20T11:25:45.491Z,44.15
2018-09-20T11:26:45.382Z,44.46
2018-09-20T11:27:45.374Z,44.07
2018-09-20T11:28:45.360Z,44.67
2018-09-20T11:29:45.351Z,43.75
2018-09-20T11:30:45.343Z,44.35
2018-09-20T11:31:45.347Z,44.24
2018-09-20T11:32:45.321Z,44.05
2018-09-20T11:33:45.308Z,43.73
2018-09-20T11:34:45.301Z,43.75
2018-09-20T11:35:45.289Z,43.75
2018-09-20T11:36:45.298Z,42.96
2018-09-20T11:37:45.269Z,43.06
2018-09-20T11:38:45.259Z,41.97
2018-09-20T11:39:45.245Z,42.66
2018-09-20T11:40:45.237Z,42.88
2018-09-20T11:41:45.260Z,43.79
2018-09-20T11:42:45.216Z,44.19
2018-09-20T11:43:45.203Z,44.11
2018-09-20T11:44:45.193Z,43.91
2018-09-20T11:45:45.184Z,44.09
2018-09-20T11:46:45.378Z,43.91
2018-09-20T11:47:45.179Z,44.53
2018-09-20T11:48:45.180Z,45.12
2018-09-20T11:49:45.144Z,44.93
2018-09-20T11:50:45.130Z,44.43
2018-09-20T11:51:45.122Z,44.63
2018-09-20T11:52:45.109Z,43.93
2018-09-20T11:53:45.100Z,44.43
2018-09-20T11:54:45.100Z,44.93
2018-09-20T11:55:45.076Z,44.63
2018-09-20T11:56:45.068Z,45.23
2018-09-20T11:57:45.078Z,45.42
2018-09-20T11:58:45.046Z,45.52
2018-09-20T11:59:45.035Z,45.23
2018-09-20T12:00:45.024Z,45.94
2018-09-20T12:01:45.068Z,45.42
2018-09-20T12:02:44.999Z,45.32
2018-09-20T12:03:45.006Z,45.23
2018-09-20T12:04:44.997Z,45.03
2018-09-20T12:05:45.013Z,45.25
2018-09-20T12:06:44.959Z,46.44
2018-09-20T12:07:44.950Z,45.92
2018-09-20T12:08:44.937Z,45.03
2018-09-20T12:09:44.926Z,45.40
2018-09-20T12:10:44.917Z,44.90
2018-09-20T12:11:44.928Z,44.98
2018-09-20T12:12:44.897Z,44.89
2018-09-20T12:13:44.884Z,44.29
2018-09-20T12:14:44.876Z,43.79
2018-09-20T12:15:44.866Z,44.39
2018-09-20T12:16:44.854Z,44.09
2018-09-20T12:17:44.862Z,43.87
2018-09-20T12:18:44.833Z,44.27
2018-09-20T12:19:44.822Z,44.05
2018-09-20T12:20:44.827Z,44.27
2018-09-20T12:21:44.802Z,43.97
2018-09-20T12:22:44.787Z,44.19
2018-09-20T12:23:44.782Z,43.70
2018-09-20T12:24:44.771Z,44.39
2018-09-20T12:25:44.802Z,44.07
2018-09-20T12:26:44.748Z,43.77
2018-09-20T12:27:44.738Z,42.88
2018-09-20T12:28:44.729Z,43.77
2018-09-20T12:29:44.718Z,42.98
2018-09-20T12:30:44.721Z,42.86
2018-09-20T12:31:44.752Z,42.66
2018-09-20T12:32:44.691Z,42.05
2018-09-20T12:33:44.676Z,43.24
2018-09-20T12:34:44.664Z,42.44
2018-09-20T12:35:44.777Z,42.35
2018-09-20T12:36:44.648Z,41.95
2018-09-20T12:37:44.630Z,43.06
2018-09-20T12:38:44.689Z,42.66
2018-09-20T12:39:44.616Z,42.86
2018-09-20T12:40:44.608Z,42.88
2018-09-20T12:41:44.612Z,42.66
2018-09-20T12:42:44.645Z,42.94
2018-09-20T12:43:44.575Z,43.33
2018-09-20T12:44:44.580Z,42.64
2018-09-20T12:45:44.555Z,42.54
2018-09-20T12:46:44.543Z,42.52
2018-09-20T12:47:44.549Z,42.32
2018-09-20T12:48:44.523Z,42.03
2018-09-20T12:49:44.511Z,42.13
2018-09-20T12:50:44.503Z,41.93
2018-09-20T12:51:44.491Z,42.21
2018-09-20T12:52:44.479Z,41.22